CSN0117 YSSY-YMML
Flight info
| Callsign | CSN0117 |
|---|---|
| Flight time | 1h 4m |
| Altitude | 36000 |
| Route | WOL H65 LEECE Q29 ML |
| Aircraft | A320/M-SDE2E3FGHIJ1RWXY/LB1 |
Departure
| Time | 2026-04-30 11:03 |
|---|---|
| Airport | Sydney Kingsford Smith International Airport (YSSY) |
Arrival
| Time | 2026-04-30 12:08 |
|---|---|
| Airport | Melbourne Airport (YMML) |
| Time | Latitude | Longitude | Altitude | Speed | Heading |
|---|---|---|---|---|---|
| 2026-04-30 10:36 | -33.93720 | 151.17890 | 30 ft | 0 kts | 74° |
| 2026-04-30 10:45 | -33.93722 | 151.17882 | 30 ft | 1 kts | 74° |
| 2026-04-30 10:46 | -33.93724 | 151.17874 | 29 ft | 1 kts | 74° |
| 2026-04-30 10:46 | -33.93726 | 151.17867 | 28 ft | 1 kts | 74° |
| 2026-04-30 10:46 | -33.93727 | 151.17859 | 28 ft | 1 kts | 74° |
| 2026-04-30 10:46 | -33.93729 | 151.17851 | 30 ft | 1 kts | 74° |
| 2026-04-30 10:47 | -33.93731 | 151.17843 | 29 ft | 1 kts | 74° |
| 2026-04-30 10:47 | -33.93733 | 151.17835 | 30 ft | 1 kts | 74° |
| 2026-04-30 10:47 | -33.93735 | 151.17827 | 29 ft | 1 kts | 74° |
| 2026-04-30 10:47 | -33.93737 | 151.17819 | 30 ft | 1 kts | 82° |
| 2026-04-30 10:48 | -33.93737 | 151.17803 | 27 ft | 2 kts | 145° |
| 2026-04-30 10:48 | -33.93724 | 151.17796 | 30 ft | 2 kts | 175° |
| 2026-04-30 10:48 | -33.93719 | 151.17796 | 27 ft | 0 kts | 192° |
| 2026-04-30 10:50 | -33.93720 | 151.17796 | 26 ft | 1 kts | 192° |
| 2026-04-30 10:50 | -33.93778 | 151.17782 | 25 ft | 22 kts | 190° |
| 2026-04-30 10:50 | -33.93808 | 151.17776 | 22 ft | 6 kts | 187° |
| 2026-04-30 10:50 | -33.93918 | 151.17784 | 22 ft | 9 kts | 168° |
| 2026-04-30 10:51 | -33.93923 | 151.17786 | 23 ft | 0 kts | 165° |
| 2026-04-30 10:51 | -33.93943 | 151.17791 | 22 ft | 14 kts | 170° |
| 2026-04-30 10:51 | -33.94091 | 151.17829 | 23 ft | 20 kts | 167° |
| 2026-04-30 10:51 | -33.94239 | 151.17873 | 26 ft | 23 kts | 170° |
| 2026-04-30 10:52 | -33.94388 | 151.17907 | 28 ft | 19 kts | 167° |
| 2026-04-30 10:52 | -33.94521 | 151.17885 | 24 ft | 21 kts | 178° |
| 2026-04-30 10:52 | -33.94671 | 151.17922 | 26 ft | 24 kts | 168° |
| 2026-04-30 10:52 | -33.94851 | 151.17970 | 22 ft | 29 kts | 167° |
| 2026-04-30 10:53 | -33.95035 | 151.18016 | 29 ft | 23 kts | 169° |
| 2026-04-30 10:53 | -33.95099 | 151.18124 | 25 ft | 19 kts | 85° |
| 2026-04-30 10:53 | -33.95080 | 151.18230 | 24 ft | 6 kts | 77° |
| 2026-04-30 10:53 | -33.95070 | 151.18283 | 25 ft | 7 kts | 77° |
| 2026-04-30 10:54 | -33.95056 | 151.18366 | 25 ft | 17 kts | 78° |
| 2026-04-30 10:54 | -33.95049 | 151.18408 | 27 ft | 0 kts | 79° |
| 2026-04-30 10:54 | -33.95048 | 151.18414 | 30 ft | 2 kts | 79° |
| 2026-04-30 10:54 | -33.95059 | 151.18492 | 26 ft | 2 kts | 132° |
| 2026-04-30 10:55 | -33.95080 | 151.18512 | 26 ft | 13 kts | 147° |
| 2026-04-30 10:55 | -33.95128 | 151.18555 | 26 ft | 7 kts | 140° |
| 2026-04-30 10:55 | -33.95202 | 151.18638 | 25 ft | 19 kts | 138° |
| 2026-04-30 10:55 | -33.95338 | 151.18727 | 24 ft | 25 kts | 167° |
| 2026-04-30 10:56 | -33.95526 | 151.18778 | 22 ft | 30 kts | 167° |
| 2026-04-30 10:56 | -33.95737 | 151.18832 | 26 ft | 32 kts | 167° |
| 2026-04-30 10:56 | -33.95965 | 151.18894 | 26 ft | 35 kts | 166° |
| 2026-04-30 10:56 | -33.96163 | 151.18943 | 24 ft | 20 kts | 168° |
| 2026-04-30 10:57 | -33.96314 | 151.18983 | 28 ft | 25 kts | 166° |
| 2026-04-30 10:57 | -33.96500 | 151.19030 | 19 ft | 31 kts | 169° |
| 2026-04-30 10:57 | -33.96661 | 151.19073 | 21 ft | 22 kts | 167° |
| 2026-04-30 10:57 | -33.96827 | 151.19072 | 17 ft | 26 kts | 171° |
| 2026-04-30 10:58 | -33.97011 | 151.19119 | 19 ft | 27 kts | 167° |
| 2026-04-30 10:58 | -33.97130 | 151.19194 | 21 ft | 16 kts | 101° |
| 2026-04-30 10:58 | -33.97120 | 151.19280 | 23 ft | 0 kts | 76° |
| 2026-04-30 11:01 | -33.97119 | 151.19280 | 23 ft | 1 kts | 76° |
| 2026-04-30 11:01 | -33.97080 | 151.19369 | 22 ft | 15 kts | 6° |
| 2026-04-30 11:02 | -33.96981 | 151.19357 | 20 ft | 12 kts | 351° |
| 2026-04-30 11:02 | -33.96954 | 151.19350 | 20 ft | 3 kts | 347° |
| 2026-04-30 11:02 | -33.96929 | 151.19342 | 20 ft | 4 kts | 347° |
| 2026-04-30 11:02 | -33.96905 | 151.19336 | 20 ft | 23 kts | 348° |
| 2026-04-30 11:03 | -33.96331 | 151.19185 | 23 ft | 138 kts | 348° |
| 2026-04-30 11:03 | -33.95204 | 151.18879 | 511 ft | 174 kts | 347° |
| 2026-04-30 11:03 | -33.93964 | 151.18986 | 1592 ft | 187 kts | 29° |
| 2026-04-30 11:04 | -33.92998 | 151.21729 | 4012 ft | 217 kts | 100° |
| 2026-04-30 11:04 | -33.93653 | 151.23605 | 4404 ft | 274 kts | 118° |
| 2026-04-30 11:04 | -33.94333 | 151.25990 | 4554 ft | 331 kts | 99° |
| 2026-04-30 11:04 | -33.94457 | 151.28970 | 4580 ft | 380 kts | 88° |
| 2026-04-30 11:05 | -33.94314 | 151.32188 | 5732 ft | 379 kts | 86° |
| 2026-04-30 11:05 | -33.94188 | 151.35335 | 7175 ft | 382 kts | 89° |
| 2026-04-30 11:05 | -33.94700 | 151.38534 | 7423 ft | 396 kts | 112° |
| 2026-04-30 11:05 | -33.95749 | 151.41447 | 8355 ft | 365 kts | 115° |
| 2026-04-30 11:06 | -33.97223 | 151.43894 | 8752 ft | 361 kts | 141° |
| 2026-04-30 11:06 | -33.99375 | 151.45144 | 9858 ft | 341 kts | 169° |
| 2026-04-30 11:06 | -34.01692 | 151.45042 | 11123 ft | 336 kts | 197° |
| 2026-04-30 11:06 | -34.03813 | 151.43887 | 12340 ft | 337 kts | 208° |
| 2026-04-30 11:07 | -34.05888 | 151.42521 | 13349 ft | 343 kts | 210° |
| 2026-04-30 11:07 | -34.07910 | 151.40965 | 14329 ft | 348 kts | 218° |
| 2026-04-30 11:07 | -34.09743 | 151.39027 | 15316 ft | 353 kts | 223° |
| 2026-04-30 11:07 | -34.11510 | 151.36948 | 16232 ft | 358 kts | 225° |
| 2026-04-30 11:08 | -34.13248 | 151.34766 | 17132 ft | 363 kts | 227° |
| 2026-04-30 11:08 | -34.14975 | 151.32513 | 17996 ft | 368 kts | 227° |
| 2026-04-30 11:08 | -34.16706 | 151.30217 | 18849 ft | 372 kts | 228° |
| 2026-04-30 11:08 | -34.18436 | 151.27918 | 19663 ft | 377 kts | 228° |
| 2026-04-30 11:09 | -34.20219 | 151.25564 | 20476 ft | 382 kts | 227° |
| 2026-04-30 11:09 | -34.22032 | 151.23190 | 21269 ft | 387 kts | 227° |
| 2026-04-30 11:09 | -34.23871 | 151.20798 | 22039 ft | 391 kts | 227° |
| 2026-04-30 11:09 | -34.25740 | 151.18380 | 22791 ft | 396 kts | 227° |
| 2026-04-30 11:10 | -34.27636 | 151.15932 | 23508 ft | 400 kts | 227° |
| 2026-04-30 11:10 | -34.29546 | 151.13459 | 24195 ft | 405 kts | 227° |
| 2026-04-30 11:10 | -34.31469 | 151.10952 | 24846 ft | 409 kts | 227° |
| 2026-04-30 11:10 | -34.33410 | 151.08416 | 25468 ft | 413 kts | 227° |
| 2026-04-30 11:11 | -34.35371 | 151.05854 | 26056 ft | 417 kts | 227° |
| 2026-04-30 11:11 | -34.37350 | 151.03264 | 26631 ft | 420 kts | 227° |
| 2026-04-30 11:11 | -34.39320 | 151.00690 | 27173 ft | 424 kts | 227° |
| 2026-04-30 11:11 | -34.41332 | 150.98066 | 27707 ft | 428 kts | 227° |
| 2026-04-30 11:12 | -34.43371 | 150.95408 | 28148 ft | 434 kts | 227° |
| 2026-04-30 11:12 | -34.45446 | 150.92696 | 28333 ft | 444 kts | 227° |
| 2026-04-30 11:12 | -34.47513 | 150.89987 | 29341 ft | 431 kts | 227° |
| 2026-04-30 11:12 | -34.49504 | 150.87372 | 30650 ft | 413 kts | 227° |
| 2026-04-30 11:13 | -34.51409 | 150.84869 | 31977 ft | 394 kts | 227° |
| 2026-04-30 11:13 | -34.53221 | 150.82484 | 33308 ft | 375 kts | 227° |
| 2026-04-30 11:13 | -34.54942 | 150.80222 | 34605 ft | 355 kts | 227° |
| 2026-04-30 11:13 | -34.56509 | 150.77961 | 35422 ft | 350 kts | 234° |
| 2026-04-30 11:14 | -34.57943 | 150.75598 | 35756 ft | 357 kts | 234° |
| 2026-04-30 11:14 | -34.59427 | 150.73130 | 35952 ft | 368 kts | 234° |
| 2026-04-30 11:14 | -34.60964 | 150.70570 | 36005 ft | 383 kts | 234° |
| 2026-04-30 11:14 | -34.62566 | 150.67899 | 36008 ft | 399 kts | 234° |
| 2026-04-30 11:15 | -34.64230 | 150.65125 | 36006 ft | 413 kts | 234° |
| 2026-04-30 11:15 | -34.65950 | 150.62263 | 36008 ft | 426 kts | 234° |
| 2026-04-30 11:15 | -34.67723 | 150.59313 | 36007 ft | 438 kts | 234° |
| 2026-04-30 11:16 | -34.71384 | 150.53223 | 36010 ft | 449 kts | 234° |
| 2026-04-30 11:16 | -34.75036 | 150.47144 | 36008 ft | 448 kts | 234° |
| 2026-04-30 11:17 | -34.78713 | 150.41000 | 36010 ft | 449 kts | 234° |
| 2026-04-30 11:17 | -34.82384 | 150.34837 | 36009 ft | 449 kts | 234° |
| 2026-04-30 11:18 | -34.86047 | 150.28689 | 36012 ft | 448 kts | 234° |
| 2026-04-30 11:18 | -34.91539 | 150.19470 | 36008 ft | 452 kts | 234° |
| 2026-04-30 11:19 | -34.95228 | 150.13265 | 36010 ft | 452 kts | 234° |
| 2026-04-30 11:19 | -34.98907 | 150.07056 | 36009 ft | 451 kts | 234° |
| 2026-04-30 11:20 | -35.02574 | 150.00855 | 36008 ft | 451 kts | 234° |
| 2026-04-30 11:20 | -35.06245 | 149.94636 | 36010 ft | 451 kts | 234° |
| 2026-04-30 11:21 | -35.09913 | 149.88415 | 36010 ft | 452 kts | 234° |
| 2026-04-30 11:21 | -35.13566 | 149.82217 | 36008 ft | 457 kts | 234° |
| 2026-04-30 11:22 | -35.17245 | 149.75960 | 36010 ft | 452 kts | 234° |
| 2026-04-30 11:22 | -35.20910 | 149.69717 | 36012 ft | 452 kts | 234° |
| 2026-04-30 11:23 | -35.24572 | 149.63462 | 36010 ft | 452 kts | 234° |
| 2026-04-30 11:24 | -35.30059 | 149.54054 | 36008 ft | 453 kts | 234° |
| 2026-04-30 11:24 | -35.33696 | 149.47817 | 36008 ft | 453 kts | 234° |
| 2026-04-30 11:25 | -35.39179 | 149.38394 | 36010 ft | 452 kts | 234° |
| 2026-04-30 11:26 | -35.46475 | 149.25793 | 36009 ft | 452 kts | 234° |
| 2026-04-30 11:26 | -35.50123 | 149.19490 | 36008 ft | 454 kts | 234° |
| 2026-04-30 11:27 | -35.53755 | 149.13221 | 36010 ft | 453 kts | 234° |
| 2026-04-30 11:27 | -35.57391 | 149.06918 | 36010 ft | 452 kts | 235° |
| 2026-04-30 11:28 | -35.62828 | 148.97422 | 36010 ft | 454 kts | 235° |
| 2026-04-30 11:29 | -35.66474 | 148.91064 | 36008 ft | 456 kts | 235° |
| 2026-04-30 11:29 | -35.71960 | 148.81494 | 36008 ft | 456 kts | 235° |
| 2026-04-30 11:30 | -35.77425 | 148.71920 | 36002 ft | 456 kts | 235° |
| 2026-04-30 11:31 | -35.81067 | 148.65524 | 36011 ft | 457 kts | 235° |
| 2026-04-30 11:31 | -35.84715 | 148.59113 | 36010 ft | 457 kts | 235° |
| 2026-04-30 11:32 | -35.88367 | 148.52683 | 36008 ft | 458 kts | 235° |
| 2026-04-30 11:32 | -35.92004 | 148.46243 | 36008 ft | 458 kts | 235° |
| 2026-04-30 11:33 | -35.97409 | 148.36611 | 36010 ft | 456 kts | 235° |
| 2026-04-30 11:33 | -36.01029 | 148.30167 | 36009 ft | 455 kts | 235° |
| 2026-04-30 11:34 | -36.04644 | 148.23734 | 36010 ft | 457 kts | 235° |
| 2026-04-30 11:34 | -36.08249 | 148.17277 | 36011 ft | 454 kts | 236° |
| 2026-04-30 11:35 | -36.11821 | 148.10865 | 36008 ft | 452 kts | 236° |
| 2026-04-30 11:35 | -36.15360 | 148.04523 | 36011 ft | 450 kts | 235° |
| 2026-04-30 11:36 | -36.18931 | 147.98155 | 36009 ft | 452 kts | 235° |
| 2026-04-30 11:36 | -36.22500 | 147.91767 | 36008 ft | 450 kts | 236° |
| 2026-04-30 11:37 | -36.26049 | 147.85375 | 36009 ft | 451 kts | 236° |
| 2026-04-30 11:37 | -36.29600 | 147.78970 | 36009 ft | 451 kts | 236° |
| 2026-04-30 11:38 | -36.33138 | 147.72579 | 36008 ft | 454 kts | 236° |
| 2026-04-30 11:38 | -36.36696 | 147.66133 | 36008 ft | 453 kts | 236° |
| 2026-04-30 11:39 | -36.40257 | 147.59668 | 36008 ft | 454 kts | 236° |
| 2026-04-30 11:39 | -36.43812 | 147.53219 | 36010 ft | 451 kts | 236° |
| 2026-04-30 11:40 | -36.47329 | 147.46814 | 36008 ft | 451 kts | 236° |
| 2026-04-30 11:40 | -36.50855 | 147.40377 | 36008 ft | 450 kts | 236° |
| 2026-04-30 11:41 | -36.54375 | 147.33944 | 36008 ft | 450 kts | 236° |
| 2026-04-30 11:41 | -36.57903 | 147.27489 | 36008 ft | 453 kts | 236° |
| 2026-04-30 11:42 | -36.61438 | 147.20990 | 36010 ft | 453 kts | 236° |
| 2026-04-30 11:42 | -36.64966 | 147.14494 | 36010 ft | 452 kts | 236° |
| 2026-04-30 11:43 | -36.68453 | 147.08063 | 36007 ft | 453 kts | 236° |
| 2026-04-30 11:43 | -36.71980 | 147.01555 | 36008 ft | 452 kts | 236° |
| 2026-04-30 11:44 | -36.75488 | 146.95079 | 36009 ft | 451 kts | 236° |
| 2026-04-30 11:44 | -36.78997 | 146.88576 | 36008 ft | 451 kts | 236° |
| 2026-04-30 11:45 | -36.82498 | 146.82069 | 36010 ft | 452 kts | 236° |
| 2026-04-30 11:45 | -36.85985 | 146.75567 | 36008 ft | 453 kts | 236° |
| 2026-04-30 11:46 | -36.89491 | 146.69039 | 36009 ft | 451 kts | 236° |
| 2026-04-30 11:46 | -36.92992 | 146.62507 | 36011 ft | 453 kts | 236° |
| 2026-04-30 11:47 | -36.96489 | 146.55966 | 36009 ft | 452 kts | 236° |
| 2026-04-30 11:47 | -36.99971 | 146.49428 | 35477 ft | 451 kts | 236° |
| 2026-04-30 11:48 | -37.01685 | 146.46204 | 34631 ft | 452 kts | 236° |
| 2026-04-30 11:48 | -37.03430 | 146.42923 | 33714 ft | 454 kts | 236° |
| 2026-04-30 11:48 | -37.05184 | 146.39625 | 32718 ft | 457 kts | 236° |
| 2026-04-30 11:48 | -37.06948 | 146.36308 | 31788 ft | 457 kts | 236° |
| 2026-04-30 11:49 | -37.08696 | 146.33017 | 31133 ft | 451 kts | 236° |
| 2026-04-30 11:49 | -37.10420 | 146.29763 | 30477 ft | 445 kts | 236° |
| 2026-04-30 11:49 | -37.12122 | 146.26549 | 29823 ft | 440 kts | 237° |
| 2026-04-30 11:49 | -37.13803 | 146.23372 | 29177 ft | 435 kts | 237° |
| 2026-04-30 11:50 | -37.15466 | 146.20229 | 28526 ft | 430 kts | 237° |
| 2026-04-30 11:50 | -37.17107 | 146.17119 | 27896 ft | 426 kts | 237° |
| 2026-04-30 11:50 | -37.18731 | 146.14038 | 27256 ft | 421 kts | 237° |
| 2026-04-30 11:50 | -37.20338 | 146.10984 | 26619 ft | 417 kts | 237° |
| 2026-04-30 11:51 | -37.21906 | 146.07999 | 26011 ft | 413 kts | 237° |
| 2026-04-30 11:51 | -37.23477 | 146.05011 | 25386 ft | 409 kts | 237° |
| 2026-04-30 11:51 | -37.25038 | 146.02042 | 24757 ft | 405 kts | 237° |
| 2026-04-30 11:51 | -37.26582 | 145.99104 | 24151 ft | 402 kts | 237° |
| 2026-04-30 11:52 | -37.28113 | 145.96187 | 23550 ft | 398 kts | 237° |
| 2026-04-30 11:52 | -37.29629 | 145.93298 | 22984 ft | 394 kts | 237° |
| 2026-04-30 11:52 | -37.31132 | 145.90432 | 22401 ft | 392 kts | 237° |
| 2026-04-30 11:52 | -37.32629 | 145.87578 | 21820 ft | 389 kts | 237° |
| 2026-04-30 11:53 | -37.34110 | 145.84749 | 21293 ft | 386 kts | 237° |
| 2026-04-30 11:53 | -37.35584 | 145.81936 | 20536 ft | 387 kts | 237° |
| 2026-04-30 11:53 | -37.37081 | 145.79084 | 19585 ft | 395 kts | 237° |
| 2026-04-30 11:53 | -37.38583 | 145.76221 | 18615 ft | 401 kts | 237° |
| 2026-04-30 11:54 | -37.40130 | 145.73272 | 17580 ft | 407 kts | 237° |
| 2026-04-30 11:54 | -37.41699 | 145.70277 | 16488 ft | 412 kts | 237° |
| 2026-04-30 11:54 | -37.43282 | 145.67244 | 15467 ft | 416 kts | 237° |
| 2026-04-30 11:54 | -37.44835 | 145.64263 | 15234 ft | 398 kts | 237° |
| 2026-04-30 11:55 | -37.46356 | 145.61440 | 15107 ft | 380 kts | 235° |
| 2026-04-30 11:55 | -37.47862 | 145.58806 | 14985 ft | 363 kts | 234° |
| 2026-04-30 11:55 | -37.49339 | 145.56305 | 14742 ft | 351 kts | 233° |
| 2026-04-30 11:55 | -37.50793 | 145.53863 | 14279 ft | 347 kts | 233° |
| 2026-04-30 11:56 | -37.52231 | 145.51439 | 13766 ft | 345 kts | 233° |
| 2026-04-30 11:56 | -37.53667 | 145.48999 | 12980 ft | 349 kts | 233° |
| 2026-04-30 11:56 | -37.55103 | 145.46543 | 12061 ft | 356 kts | 234° |
| 2026-04-30 11:56 | -37.56581 | 145.44004 | 11061 ft | 363 kts | 234° |
| 2026-04-30 11:57 | -37.58082 | 145.41412 | 9980 ft | 369 kts | 234° |
| 2026-04-30 11:57 | -37.59603 | 145.38782 | 9140 ft | 368 kts | 234° |
| 2026-04-30 11:57 | -37.61075 | 145.36232 | 8848 ft | 350 kts | 234° |
| 2026-04-30 11:57 | -37.62464 | 145.33825 | 8701 ft | 330 kts | 234° |
| 2026-04-30 11:58 | -37.63772 | 145.31560 | 8685 ft | 308 kts | 234° |
| 2026-04-30 11:58 | -37.64995 | 145.29443 | 8693 ft | 289 kts | 234° |
| 2026-04-30 11:58 | -37.66155 | 145.27433 | 8673 ft | 283 kts | 234° |
| 2026-04-30 11:58 | -37.67312 | 145.25424 | 8126 ft | 291 kts | 234° |
| 2026-04-30 11:59 | -37.68522 | 145.23321 | 7311 ft | 301 kts | 234° |
| 2026-04-30 11:59 | -37.69768 | 145.21155 | 6444 ft | 309 kts | 234° |
| 2026-04-30 11:59 | -37.71052 | 145.18926 | 5515 ft | 318 kts | 234° |
| 2026-04-30 11:59 | -37.72366 | 145.16639 | 4522 ft | 326 kts | 234° |
| 2026-04-30 12:00 | -37.73694 | 145.14326 | 3934 ft | 320 kts | 234° |
| 2026-04-30 12:00 | -37.74964 | 145.12113 | 3756 ft | 301 kts | 234° |
| 2026-04-30 12:00 | -37.76152 | 145.10045 | 3679 ft | 280 kts | 234° |
| 2026-04-30 12:00 | -37.77250 | 145.08131 | 3690 ft | 258 kts | 234° |
| 2026-04-30 12:01 | -37.78269 | 145.06351 | 3586 ft | 243 kts | 234° |
| 2026-04-30 12:01 | -37.79240 | 145.04653 | 3274 ft | 234 kts | 234° |
| 2026-04-30 12:01 | -37.80174 | 145.03022 | 2579 ft | 233 kts | 234° |
| 2026-04-30 12:01 | -37.81082 | 145.01305 | 2245 ft | 236 kts | 243° |
| 2026-04-30 12:02 | -37.81642 | 144.99370 | 2182 ft | 235 kts | 257° |
| 2026-04-30 12:02 | -37.81986 | 144.97342 | 2190 ft | 236 kts | 258° |
| 2026-04-30 12:02 | -37.82337 | 144.95322 | 2189 ft | 232 kts | 258° |
| 2026-04-30 12:02 | -37.82647 | 144.93458 | 2188 ft | 201 kts | 259° |
| 2026-04-30 12:03 | -37.82863 | 144.91825 | 2189 ft | 177 kts | 261° |
| 2026-04-30 12:03 | -37.83214 | 144.88749 | 2189 ft | 177 kts | 268° |
| 2026-04-30 12:03 | -37.82858 | 144.87335 | 2197 ft | 170 kts | 310° |
| 2026-04-30 12:04 | -37.81958 | 144.86600 | 2217 ft | 145 kts | 346° |
| 2026-04-30 12:04 | -37.81008 | 144.86428 | 2219 ft | 137 kts | 352° |
| 2026-04-30 12:04 | -37.80068 | 144.86254 | 2201 ft | 137 kts | 351° |
| 2026-04-30 12:04 | -37.79128 | 144.86077 | 2196 ft | 137 kts | 351° |
| 2026-04-30 12:05 | -37.78187 | 144.85897 | 2065 ft | 137 kts | 351° |
| 2026-04-30 12:05 | -37.77239 | 144.85708 | 1747 ft | 139 kts | 350° |
| 2026-04-30 12:05 | -37.76325 | 144.85518 | 1649 ft | 131 kts | 349° |
| 2026-04-30 12:05 | -37.75430 | 144.85328 | 1501 ft | 130 kts | 350° |
| 2026-04-30 12:06 | -37.74535 | 144.85154 | 1329 ft | 130 kts | 351° |
| 2026-04-30 12:06 | -37.73640 | 144.85002 | 1210 ft | 130 kts | 352° |
| 2026-04-30 12:06 | -37.72759 | 144.84840 | 1153 ft | 130 kts | 351° |
| 2026-04-30 12:06 | -37.71865 | 144.84683 | 1092 ft | 130 kts | 353° |
| 2026-04-30 12:07 | -37.70971 | 144.84534 | 954 ft | 129 kts | 352° |
| 2026-04-30 12:07 | -37.70080 | 144.84378 | 680 ft | 128 kts | 352° |
| 2026-04-30 12:07 | -37.69198 | 144.84205 | 519 ft | 128 kts | 351° |
| 2026-04-30 12:07 | -37.68315 | 144.84049 | 367 ft | 128 kts | 352° |
| 2026-04-30 12:08 | -37.67565 | 144.83912 | 374 ft | 82 kts | 351° |
| 2026-04-30 12:08 | -37.67166 | 144.83835 | 391 ft | 38 kts | 352° |
| 2026-04-30 12:08 | -37.66973 | 144.83852 | 396 ft | 7 kts | 15° |
| 2026-04-30 12:08 | -37.66948 | 144.83861 | 395 ft | 2 kts | 16° |
| 2026-04-30 12:09 | -37.66938 | 144.83865 | 393 ft | 1 kts | 17° |
| 2026-04-30 12:09 | -37.66875 | 144.83890 | 398 ft | 13 kts | 23° |
| 2026-04-30 12:09 | -37.66851 | 144.83908 | 398 ft | 0 kts | 21° |
| 2026-04-30 12:11 | -37.66849 | 144.83909 | 398 ft | 3 kts | 21° |
| 2026-04-30 12:11 | -37.66763 | 144.83958 | 399 ft | 18 kts | 37° |
| 2026-04-30 12:11 | -37.66712 | 144.84102 | 402 ft | 19 kts | 82° |
| 2026-04-30 12:12 | -37.66690 | 144.84276 | 404 ft | 21 kts | 81° |
| 2026-04-30 12:12 | -37.66669 | 144.84463 | 409 ft | 21 kts | 83° |
| 2026-04-30 12:12 | -37.66681 | 144.84531 | 408 ft | 6 kts | 151° |
| 2026-04-30 12:12 | -37.66733 | 144.84540 | 407 ft | 8 kts | 171° |
| 2026-04-30 12:13 | -37.66751 | 144.84543 | 408 ft | 2 kts | 172° |
| 2026-04-30 12:13 | -37.66756 | 144.84544 | 408 ft | 0 kts | 173° |